Time;durP1;ratioP1;P1;durP2;ratioP2;P2;SDS_P1;SDS_P2;PMS_P1;PMS_P2;Temp;Humidity;BMP_temperature;BMP_pressure;BME280_temperature;BME280_humidity;BME280_pressure;Samples;Min_cycle;Max_cycle;Signal;HPM_P1;HPM_P2
2022/04/19 00:01:06;;;;;;;6.88;3.15;;;9.10;79.90;;;;;;4998164;28;20052;-71
2022/04/19 00:03:32;;;;;;;6.30;3.58;;;9.00;80.00;;;;;;5002221;28;20057;-71
2022/04/19 00:05:58;;;;;;;6.03;2.67;;;8.90;80.20;;;;;;5003438;28;20038;-72
2022/04/19 00:08:24;;;;;;;6.10;2.90;;;8.90;80.30;;;;;;5002310;28;20121;-71
2022/04/19 00:10:49;;;;;;;7.35;3.03;;;8.80;80.30;;;;;;4998214;28;20525;-71
2022/04/19 00:13:20;;;;;;;5.97;3.30;;;8.80;80.60;;;;;;5002818;28;20033;-71
2022/04/19 00:15:46;;;;;;;10.20;2.80;;;8.80;80.40;;;;;;5001272;28;20038;-71
2022/04/19 00:18:13;;;;;;;5.43;3.13;;;8.80;80.10;;;;;;5010922;28;20045;-71
2022/04/19 00:20:42;;;;;;;6.50;2.92;;;8.80;80.40;;;;;;4997217;28;20037;-71
2022/04/19 00:23:15;;;;;;;5.72;2.85;;;8.70;80.60;;;;;;5004869;28;20026;-72
2022/04/19 00:25:42;;;;;;;7.78;3.13;;;8.70;80.20;;;;;;5005081;28;20026;-72
2022/04/19 00:28:09;;;;;;;6.68;3.13;;;8.90;79.90;;;;;;5007009;28;20045;-71
2022/04/19 00:30:35;;;;;;;7.47;2.45;;;8.90;80.10;;;;;;4998237;28;20034;-71
2022/04/19 00:33:01;;;;;;;7.72;3.53;;;8.80;80.30;;;;;;5005395;28;20037;-71
2022/04/19 00:35:28;;;;;;;7.28;2.85;;;8.90;80.70;;;;;;5008262;28;20041;-72
2022/04/19 00:37:54;;;;;;;7.30;3.38;;;8.70;81.00;;;;;;5002550;28;20141;-73
2022/04/19 00:40:20;;;;;;;7.53;3.42;;;8.40;81.30;;;;;;5007257;28;20532;-71
2022/04/19 00:42:47;;;;;;;5.80;2.88;;;8.10;82.30;;;;;;5007746;28;20546;-71
2022/04/19 00:45:13;;;;;;;5.18;2.97;;;8.20;81.90;;;;;;5001491;28;20070;-71
2022/04/19 00:47:39;;;;;;;6.60;2.58;;;8.30;81.80;;;;;;5000503;28;20040;-71
2022/04/19 00:50:06;;;;;;;9.60;3.60;;;8.40;81.50;;;;;;5001131;28;20431;-72
2022/04/19 00:52:34;;;;;;;5.78;3.03;;;8.40;81.20;;;;;;5011122;28;20042;-71
2022/04/19 00:55:01;;;;;;;6.45;3.15;;;8.40;81.30;;;;;;5010014;28;20034;-71
2022/04/19 00:57:28;;;;;;;8.15;3.60;;;8.50;81.30;;;;;;5005883;28;20132;-72
2022/04/19 00:59:55;;;;;;;6.30;2.78;;;8.50;81.20;;;;;;5001898;28;20087;-72
2022/04/19 01:02:22;;;;;;;9.35;2.97;;;8.60;80.80;;;;;;5008621;28;20392;-71
2022/04/19 01:04:52;;;;;;;4.90;3.13;;;8.50;81.20;;;;;;5007165;28;20563;-72
2022/04/19 01:07:19;;;;;;;5.60;3.15;;;8.50;81.20;;;;;;4998135;28;20096;-71
2022/04/19 01:09:46;;;;;;;5.40;2.75;;;8.40;81.20;;;;;;5006091;28;20443;-71
2022/04/19 01:15:05;;;;;;;7.03;2.92;;;8.20;81.50;;;;;;4992272;28;20093;-71
2022/04/19 01:17:34;;;;;;;5.22;2.83;;;8.30;81.40;;;;;;5004060;28;20096;-71
2022/04/19 01:20:03;;;;;;;5.00;2.53;;;8.30;81.50;;;;;;5004852;28;20464;-71
2022/04/19 01:22:39;;;;;;;6.15;2.95;;;8.30;81.00;;;;;;5008135;28;20028;-71
2022/04/19 01:25:06;;;;;;;6.65;3.20;;;8.30;81.50;;;;;;5000401;28;20202;-71
2022/04/19 01:27:33;;;;;;;7.43;3.55;;;8.40;81.40;;;;;;5002388;28;20061;-71
2022/04/19 01:30:02;;;;;;;8.27;3.55;;;8.20;81.40;;;;;;5002173;28;20030;-71
2022/04/19 01:32:28;;;;;;;7.20;3.08;;;8.30;81.70;;;;;;5009540;28;20042;-71
2022/04/19 01:35:21;;;;;;;5.32;3.28;;;8.50;81.10;;;;;;5005507;28;20140;-71
2022/04/19 01:37:49;;;;;;;8.23;3.22;;;8.30;81.20;;;;;;5001656;28;20145;-71
2022/04/19 01:40:18;;;;;;;5.85;2.65;;;8.30;81.20;;;;;;5001795;28;20030;-71
2022/04/19 01:42:53;;;;;;;6.95;2.83;;;8.20;81.90;;;;;;4998671;28;20045;-72
2022/04/19 01:45:23;;;;;;;6.28;3.00;;;8.10;82.10;;;;;;5000154;28;20544;-72
2022/04/19 01:47:50;;;;;;;5.57;2.90;;;8.00;83.00;;;;;;5008103;28;20435;-71
2022/04/19 01:50:16;;;;;;;5.88;2.90;;;8.00;82.80;;;;;;4997384;28;20397;-71
2022/04/19 01:52:43;;;;;;;6.05;2.85;;;7.80;83.30;;;;;;5006215;28;20026;-71
2022/04/19 01:55:14;;;;;;;6.15;3.42;;;7.80;83.40;;;;;;5008329;28;20034;-71
2022/04/19 01:57:52;;;;;;;6.45;3.25;;;7.90;84.20;;;;;;5004098;28;20038;-71
2022/04/19 02:00:19;;;;;;;6.60;3.45;;;7.80;83.40;;;;;;4996310;28;20502;-71
2022/04/19 02:02:46;;;;;;;6.72;3.53;;;7.70;83.40;;;;;;5006882;28;20038;-71
2022/04/19 02:05:13;;;;;;;6.22;3.58;;;7.90;83.60;;;;;;5005468;28;20464;-71
2022/04/19 02:07:41;;;;;;;8.07;3.85;;;7.90;83.30;;;;;;5002554;28;20033;-71
2022/04/19 02:10:08;;;;;;;7.80;3.75;;;7.80;83.40;;;;;;4996607;28;20038;-71
2022/04/19 02:12:34;;;;;;;5.50;2.90;;;7.80;83.60;;;;;;5002583;28;20049;-71
2022/04/19 02:15:00;;;;;;;7.38;2.95;;;7.60;84.30;;;;;;5001183;28;20079;-71
2022/04/19 02:17:26;;;;;;;6.55;3.70;;;7.70;84.30;;;;;;5004307;28;20037;-71
2022/04/19 02:20:03;;;;;;;8.18;3.55;;;7.60;84.60;;;;;;5001880;28;20037;-71
2022/04/19 02:22:30;;;;;;;7.03;3.30;;;7.60;84.50;;;;;;5007890;28;20026;-71
2022/04/19 02:24:57;;;;;;;7.88;3.33;;;7.60;84.80;;;;;;5003397;28;20042;-71
2022/04/19 02:27:24;;;;;;;7.75;3.47;;;7.50;85.10;;;;;;5005719;28;20057;-71
2022/04/19 02:29:54;;;;;;;5.55;2.92;;;7.50;85.00;;;;;;4998095;28;20088;-70
2022/04/19 02:32:20;;;;;;;6.82;2.92;;;7.50;85.00;;;;;;5001175;28;20433;-71
2022/04/19 02:34:47;;;;;;;5.45;2.75;;;7.50;84.80;;;;;;5004177;28;20116;-71
2022/04/19 02:37:13;;;;;;;5.55;2.88;;;7.30;85.40;;;;;;5006869;28;20029;-71
2022/04/19 02:39:38;;;;;;;7.03;2.88;;;7.20;86.00;;;;;;5007454;28;20357;-71
2022/04/19 02:42:05;;;;;;;4.78;2.90;;;7.20;86.00;;;;;;5006674;28;20042;-71
2022/04/19 02:44:31;;;;;;;5.80;3.28;;;7.10;86.80;;;;;;5000334;28;20076;-71
2022/04/19 02:46:56;;;;;;;6.28;3.28;;;7.10;86.60;;;;;;5001307;28;20109;-71
2022/04/19 02:49:22;;;;;;;7.38;3.20;;;7.10;86.80;;;;;;5003092;28;20396;-71
2022/04/19 02:51:47;;;;;;;6.50;3.38;;;7.10;86.90;;;;;;5004881;28;20078;-71
2022/04/19 02:54:13;;;;;;;6.43;3.20;;;7.00;87.40;;;;;;5004050;28;20033;-71
2022/04/19 02:56:39;;;;;;;6.47;3.72;;;7.00;87.00;;;;;;4999310;28;20520;-71
2022/04/19 02:59:05;;;;;;;5.30;3.45;;;7.00;87.50;;;;;;5005696;28;20083;-71
2022/04/19 03:01:31;;;;;;;6.93;3.42;;;6.90;87.70;;;;;;5003292;28;20025;-70
2022/04/19 03:03:57;;;;;;;6.05;3.10;;;7.00;87.10;;;;;;4997980;28;20476;-70
2022/04/19 03:06:23;;;;;;;5.85;3.03;;;7.00;87.30;;;;;;5003349;28;20049;-70
2022/04/19 03:08:49;;;;;;;6.60;3.10;;;6.90;88.30;;;;;;5003123;28;20038;-69
2022/04/19 03:11:15;;;;;;;6.45;3.33;;;6.90;87.80;;;;;;4998707;28;20133;-70
2022/04/19 03:13:41;;;;;;;7.90;3.22;;;6.90;88.80;;;;;;4990182;28;20030;-70
2022/04/19 03:16:08;;;;;;;6.20;3.30;;;6.80;88.30;;;;;;4993646;28;20622;-70
2022/04/19 03:18:34;;;;;;;8.60;3.45;;;6.80;88.20;;;;;;4990807;28;20042;-69
2022/04/19 03:20:59;;;;;;;6.47;3.00;;;6.80;88.30;;;;;;4993590;28;20400;-70
2022/04/19 03:28:54;;;;;;;8.10;3.25;;;6.90;87.90;;;;;;5001164;28;20037;-69
2022/04/19 03:31:22;;;;;;;5.50;3.15;;;6.80;88.30;;;;;;4999512;28;20387;-70
2022/04/19 03:33:51;;;;;;;6.10;3.38;;;6.80;88.50;;;;;;4999997;28;20037;-69
2022/04/19 03:36:17;;;;;;;6.65;3.45;;;6.70;88.60;;;;;;4995786;28;20038;-70
2022/04/19 03:38:43;;;;;;;8.80;3.55;;;6.70;88.90;;;;;;5000014;28;20046;-70
2022/04/19 03:41:09;;;;;;;8.25;3.65;;;6.80;88.90;;;;;;5000920;28;20084;-70
2022/04/19 03:43:37;;;;;;;9.68;3.95;;;6.50;89.70;;;;;;5000361;28;20038;-70
2022/04/19 03:46:02;;;;;;;6.53;3.38;;;6.50;89.70;;;;;;4994688;28;20527;-70
2022/04/19 03:48:28;;;;;;;8.48;3.38;;;6.60;89.50;;;;;;5000035;28;20112;-70
2022/04/19 03:50:54;;;;;;;7.50;3.75;;;6.50;89.90;;;;;;4996366;28;20120;-69
2022/04/19 03:53:19;;;;;;;5.72;3.30;;;6.50;89.90;;;;;;5000385;28;20029;-69
2022/04/19 03:55:45;;;;;;;7.70;3.78;;;6.50;90.00;;;;;;4998494;28;20041;-70
2022/04/19 03:58:11;;;;;;;7.70;3.35;;;6.50;89.90;;;;;;4997417;28;20595;-70
2022/04/19 04:00:37;;;;;;;7.50;3.30;;;6.50;90.00;;;;;;4990380;28;20347;-70
2022/04/19 04:03:04;;;;;;;8.73;3.78;;;6.60;89.70;;;;;;4988759;28;20108;-69
2022/04/19 04:05:30;;;;;;;5.60;3.38;;;6.50;90.00;;;;;;4999483;28;20076;-70
2022/04/19 04:07:57;;;;;;;14.23;3.83;;;6.40;90.30;;;;;;4984708;28;20061;-69
2022/04/19 04:10:23;;;;;;;6.60;3.67;;;6.30;90.50;;;;;;4987052;28;20038;-70
2022/04/19 04:12:49;;;;;;;5.70;3.70;;;6.20;90.70;;;;;;4994966;28;20025;-70
2022/04/19 04:15:15;;;;;;;7.32;3.97;;;6.20;90.60;;;;;;4993502;28;20074;-70
2022/04/19 04:17:40;;;;;;;6.60;3.50;;;6.50;90.20;;;;;;4996189;28;20080;-70
2022/04/19 04:20:06;;;;;;;6.07;3.55;;;6.50;90.20;;;;;;4990273;28;20041;-70
2022/04/19 04:22:32;;;;;;;7.43;3.35;;;6.40;90.50;;;;;;4998070;28;20497;-69
2022/04/19 04:24:58;;;;;;;6.97;2.88;;;6.30;90.90;;;;;;4999859;28;20061;-70
2022/04/19 04:27:23;;;;;;;8.02;3.38;;;6.30;90.70;;;;;;4996671;28;20053;-70
2022/04/19 04:29:49;;;;;;;7.68;3.63;;;6.30;91.00;;;;;;4992636;28;20025;-70
2022/04/19 04:32:15;;;;;;;7.15;3.28;;;6.10;91.30;;;;;;4998391;28;20030;-70
2022/04/19 04:34:41;;;;;;;6.68;3.50;;;6.00;91.50;;;;;;4995008;28;20495;-69
2022/04/19 04:37:06;;;;;;;8.80;3.85;;;6.10;91.50;;;;;;4995650;28;20030;-69
2022/04/19 04:39:32;;;;;;;8.07;3.45;;;6.10;91.50;;;;;;5000772;28;20038;-69
2022/04/19 04:41:58;;;;;;;6.32;3.45;;;6.20;91.30;;;;;;4998985;28;20764;-70
2022/04/19 04:44:23;;;;;;;8.43;3.83;;;6.30;91.20;;;;;;4996579;28;20029;-69
2022/04/19 04:49:36;;;;;;;8.13;4.28;;;6.40;91.10;;;;;;4978822;28;20088;-70
2022/04/19 04:52:03;;;;;;;9.10;3.67;;;6.50;90.90;;;;;;4987736;28;20505;-69
2022/04/19 04:54:28;;;;;;;7.57;3.42;;;6.20;91.60;;;;;;4989153;28;20029;-70
2022/04/19 04:56:54;;;;;;;8.90;3.63;;;6.00;91.90;;;;;;4979792;28;20042;-69
2022/04/19 04:59:19;;;;;;;5.78;3.17;;;6.00;92.10;;;;;;4997675;28;20574;-70
2022/04/19 05:01:45;;;;;;;6.82;3.90;;;6.10;91.90;;;;;;4977470;28;20955;-70
2022/04/19 05:04:11;;;;;;;6.03;3.40;;;6.20;91.70;;;;;;4979816;28;20136;-71
2022/04/19 05:06:36;;;;;;;10.43;4.75;;;6.20;91.80;;;;;;4983485;28;21493;-70
2022/04/19 05:09:02;;;;;;;6.85;3.78;;;6.20;91.60;;;;;;4983854;28;20030;-69
2022/04/19 05:11:28;;;;;;;7.57;3.90;;;6.30;91.50;;;;;;4998690;28;20033;-70
2022/04/19 05:13:55;;;;;;;6.68;3.85;;;6.30;91.80;;;;;;4991028;28;20125;-70
2022/04/19 05:16:20;;;;;;;6.40;3.85;;;6.30;92.00;;;;;;4975843;28;20111;-70
2022/04/19 05:18:46;;;;;;;6.70;3.58;;;6.30;92.00;;;;;;4977894;28;20041;-70
2022/04/19 05:21:12;;;;;;;7.53;3.85;;;6.40;92.00;;;;;;4990274;28;20552;-70
2022/04/19 05:23:37;;;;;;;8.60;3.40;;;6.40;92.10;;;;;;4997057;28;20030;-70
2022/04/19 05:26:03;;;;;;;6.35;3.42;;;6.80;91.20;;;;;;4979592;28;20137;-70
2022/04/19 05:28:29;;;;;;;7.70;3.25;;;6.70;91.30;;;;;;4994075;28;20034;-69
2022/04/19 05:30:54;;;;;;;8.00;4.05;;;7.00;90.90;;;;;;4993565;28;20041;-70
2022/04/19 05:33:21;;;;;;;6.07;3.33;;;7.20;90.70;;;;;;5003444;28;20120;-70
2022/04/19 05:35:46;;;;;;;8.50;3.50;;;7.20;90.60;;;;;;4990582;28;20033;-71
2022/04/19 05:38:12;;;;;;;9.55;3.78;;;7.50;91.00;;;;;;5004738;28;20044;-70
2022/04/19 05:40:41;;;;;;;7.28;3.33;;;7.40;90.70;;;;;;5003751;28;20038;-70
2022/04/19 05:43:07;;;;;;;7.55;3.85;;;7.40;90.80;;;;;;5001773;28;20084;-71
2022/04/19 05:45:33;;;;;;;6.63;3.40;;;7.60;91.10;;;;;;5009066;28;20045;-70
2022/04/19 05:47:59;;;;;;;11.88;3.65;;;7.70;90.90;;;;;;4999536;28;20030;-70
2022/04/19 05:50:25;;;;;;;6.60;4.07;;;7.70;90.70;;;;;;5002830;28;20038;-70
2022/04/19 05:52:50;;;;;;;10.65;3.03;;;7.70;90.80;;;;;;5002083;28;20590;-70
2022/04/19 05:55:16;;;;;;;7.10;2.88;;;7.80;90.90;;;;;;5003121;28;20037;-71
2022/04/19 05:57:42;;;;;;;5.78;3.10;;;8.00;91.20;;;;;;5004421;28;20049;-71
2022/04/19 06:00:08;;;;;;;6.30;3.30;;;8.00;91.60;;;;;;5001611;28;20065;-71
2022/04/19 06:05:18;;;;;;;7.38;3.75;;;8.00;91.40;;;;;;5004840;28;20124;-71
2022/04/19 06:07:47;;;;;;;7.47;4.53;;;8.10;91.90;;;;;;5003140;28;20496;-71
2022/04/19 06:10:14;;;;;;;10.20;4.22;;;8.20;91.60;;;;;;4998286;28;20201;-71
2022/04/19 06:12:40;;;;;;;7.70;4.03;;;8.20;91.30;;;;;;5001111;28;20034;-71
2022/04/19 06:15:07;;;;;;;5.63;2.97;;;8.30;91.60;;;;;;4989211;28;20057;-71
2022/04/19 06:17:35;;;;;;;7.10;3.75;;;8.30;91.50;;;;;;4976217;28;20057;-71
2022/04/19 06:20:02;;;;;;;9.00;4.28;;;8.30;91.60;;;;;;4988406;28;20022;-70
2022/04/19 06:22:28;;;;;;;11.52;4.50;;;8.30;91.50;;;;;;5001130;28;20061;-71
2022/04/19 06:24:55;;;;;;;9.73;4.25;;;8.30;91.20;;;;;;5000395;28;20448;-71
2022/04/19 06:27:21;;;;;;;8.50;3.70;;;8.30;90.50;;;;;;4998853;28;20548;-70
2022/04/19 06:29:47;;;;;;;9.45;3.47;;;8.30;89.70;;;;;;4978894;28;20038;-71
2022/04/19 06:32:13;;;;;;;8.48;3.83;;;8.50;89.40;;;;;;4994122;28;20468;-70
2022/04/19 06:34:39;;;;;;;8.07;3.15;;;8.80;90.10;;;;;;4994037;28;20092;-71
2022/04/19 06:37:05;;;;;;;23.08;4.93;;;9.30;90.30;;;;;;5002720;28;20606;-70
2022/04/19 06:39:31;;;;;;;12.68;3.88;;;9.60;89.90;;;;;;5000446;28;20045;-71
2022/04/19 06:41:56;;;;;;;12.48;4.13;;;9.70;87.60;;;;;;5002702;28;20064;-71
2022/04/19 06:44:22;;;;;;;6.80;3.75;;;10.00;86.70;;;;;;4992441;28;20642;-71
2022/04/19 06:46:49;;;;;;;8.75;4.00;;;10.10;85.50;;;;;;4974439;28;20038;-70
2022/04/19 06:49:16;;;;;;;8.30;3.88;;;10.70;85.10;;;;;;4973343;28;20637;-72
2022/04/19 06:51:42;;;;;;;7.85;3.65;;;11.20;83.10;;;;;;4972443;28;20745;-72
2022/04/19 06:54:09;;;;;;;7.50;2.90;;;12.00;81.20;;;;;;4982109;28;20121;-72
2022/04/19 06:56:35;;;;;;;6.47;3.08;;;13.40;78.80;;;;;;4973484;28;20037;-72
2022/04/19 06:59:01;;;;;;;8.63;3.78;;;14.10;75.60;;;;;;4974165;28;20090;-73
2022/04/19 07:01:27;;;;;;;7.55;3.13;;;14.90;73.70;;;;;;4970982;28;20120;-72
2022/04/19 07:03:53;;;;;;;7.97;3.13;;;15.90;72.00;;;;;;4972226;28;20088;-72
2022/04/19 07:06:19;;;;;;;8.07;3.47;;;17.10;70.00;;;;;;4974690;28;20046;-73
2022/04/19 07:08:45;;;;;;;8.80;3.92;;;18.10;67.70;;;;;;4998340;28;20049;-72
2022/04/19 07:11:12;;;;;;;5.05;3.13;;;18.10;66.50;;;;;;4981787;28;20022;-72
2022/04/19 07:13:39;;;;;;;9.18;3.83;;;18.10;66.10;;;;;;4996295;28;20043;-72
2022/04/19 07:16:05;;;;;;;7.60;2.95;;;17.40;66.80;;;;;;4985030;28;20737;-71
2022/04/19 07:18:31;;;;;;;5.68;3.33;;;17.70;66.80;;;;;;4989990;28;20045;-72
2022/04/19 07:26:38;;;;;;;7.65;3.35;;;17.70;66.00;;;;;;4992779;28;20069;-72
2022/04/19 07:29:05;;;;;;;6.20;3.50;;;17.70;65.40;;;;;;4990583;28;20448;-72
2022/04/19 07:31:34;;;;;;;7.15;3.38;;;18.00;66.40;;;;;;4993448;28;20034;-72
2022/04/19 07:34:00;;;;;;;6.88;3.10;;;17.70;65.40;;;;;;4992117;28;20030;-72
2022/04/19 07:36:26;;;;;;;7.28;3.58;;;15.80;69.10;;;;;;5001434;28;20033;-72
2022/04/19 07:38:52;;;;;;;7.38;3.88;;;13.60;73.40;;;;;;5002546;28;20096;-72
2022/04/19 07:41:18;;;;;;;6.43;3.50;;;12.30;75.70;;;;;;5003120;28;20038;-72
2022/04/19 07:43:47;;;;;;;9.30;3.83;;;11.50;77.00;;;;;;5002319;28;20034;-72
2022/04/19 07:46:15;;;;;;;6.25;3.53;;;11.20;78.80;;;;;;4999527;28;20060;-72
2022/04/19 07:48:45;;;;;;;10.10;3.58;;;11.30;79.40;;;;;;4999154;28;20477;-72
2022/04/19 07:51:13;;;;;;;18.23;8.40;;;11.40;80.30;;;;;;4996188;28;20042;-72
2022/04/19 07:53:38;;;;;;;8.13;4.30;;;11.50;80.50;;;;;;4997625;28;20030;-72
2022/04/19 07:56:04;;;;;;;64.57;29.33;;;11.50;79.50;;;;;;5000226;28;20500;-72
2022/04/19 07:58:30;;;;;;;92.40;43.00;;;11.40;79.30;;;;;;4997704;28;20045;-72
2022/04/19 08:00:56;;;;;;;40.92;20.02;;;11.40;79.60;;;;;;5003329;28;20058;-72
2022/04/19 08:03:21;;;;;;;26.52;16.10;;;11.60;79.40;;;;;;5002563;28;20073;-72
2022/04/19 08:05:47;;;;;;;10.60;4.85;;;11.70;79.20;;;;;;5002386;28;20053;-72
2022/04/19 08:08:13;;;;;;;13.07;4.00;;;11.60;78.70;;;;;;4992305;28;20038;-72
2022/04/19 08:10:38;;;;;;;11.35;5.88;;;11.60;79.70;;;;;;4999323;28;20123;-72
2022/04/19 08:13:04;;;;;;;76.35;35.67;;;11.90;80.10;;;;;;4990471;28;20044;-73
2022/04/19 08:15:31;;;;;;;22.80;10.60;;;12.10;78.60;;;;;;4981837;28;20049;-72
2022/04/19 08:17:57;;;;;;;13.02;6.55;;;12.20;79.60;;;;;;5001630;28;20132;-72
2022/04/19 08:20:24;;;;;;;17.02;6.97;;;12.40;78.90;;;;;;4999503;28;20488;-72
2022/04/19 08:22:49;;;;;;;20.92;10.73;;;12.50;78.90;;;;;;4995851;28;20026;-72
2022/04/19 08:25:15;;;;;;;14.43;5.53;;;12.70;78.20;;;;;;4999425;28;20036;-72
2022/04/19 08:27:45;;;;;;;13.15;5.97;;;12.80;77.50;;;;;;4999572;28;20046;-72
2022/04/19 08:30:12;;;;;;;6.55;4.00;;;12.70;76.60;;;;;;4997983;28;20488;-72
2022/04/19 08:32:38;;;;;;;20.60;8.68;;;12.50;77.30;;;;;;4999098;28;20079;-72
2022/04/19 08:35:05;;;;;;;10.02;4.78;;;12.80;77.70;;;;;;4988668;28;20037;-72
2022/04/19 08:37:32;;;;;;;9.63;4.22;;;13.40;76.00;;;;;;4976975;28;20122;-72
2022/04/19 08:39:58;;;;;;;6.72;3.70;;;15.40;74.20;;;;;;4977855;28;20533;-72
2022/04/19 08:42:25;;;;;;;8.88;3.55;;;16.30;72.60;;;;;;4991656;28;20022;-72
2022/04/19 08:44:50;;;;;;;6.38;3.55;;;17.00;71.00;;;;;;5001561;28;20041;-72
2022/04/19 08:47:17;;;;;;;7.40;4.13;;;17.70;69.80;;;;;;5003644;28;20038;-72
2022/04/19 08:49:45;;;;;;;8.48;4.35;;;18.30;67.80;;;;;;5006497;28;20037;-72
2022/04/19 08:52:10;;;;;;;9.20;3.78;;;18.00;66.20;;;;;;5005708;28;20380;-72
2022/04/19 08:57:29;;;;;;;9.65;3.78;;;18.00;68.20;;;;;;5005263;28;20037;-72
2022/04/19 08:59:55;;;;;;;13.50;4.70;;;18.10;68.70;;;;;;4997900;28;20113;-72
2022/04/19 09:02:29;;;;;;;9.98;4.07;;;17.20;69.10;;;;;;5004868;28;20160;-72
2022/04/19 09:05:14;;;;;;;17.23;3.80;;;17.80;69.60;;;;;;5006080;28;20038;-73
2022/04/19 09:07:40;;;;;;;;;;;17.80;69.90;;;;;;5004774;28;20034;-72
2022/04/19 09:10:06;;;;;;;6.05;3.70;;;17.30;69.30;;;;;;4995949;28;19921;-72
2022/04/19 09:12:33;;;;;;;8.68;3.95;;;16.90;71.10;;;;;;5004456;28;20022;-72
2022/04/19 09:15:06;;;;;;;8.35;3.45;;;16.20;69.50;;;;;;5002229;28;20866;-73
2022/04/19 09:17:42;;;;;;;7.80;3.17;;;15.30;69.80;;;;;;5003515;28;20033;-72
2022/04/19 09:20:11;;;;;;;5.60;2.92;;;15.00;70.50;;;;;;5004557;28;20504;-72
2022/04/19 09:22:37;;;;;;;13.50;3.42;;;14.90;70.60;;;;;;5001410;28;20060;-72
2022/04/19 09:25:26;;;;;;;7.00;3.25;;;15.00;69.80;;;;;;5004526;28;20045;-72
2022/04/19 09:27:56;;;;;;;6.80;3.45;;;14.70;69.40;;;;;;5003045;28;20026;-74
2022/04/19 09:30:24;;;;;;;5.13;2.80;;;14.60;71.40;;;;;;4989281;28;20034;-72
2022/04/19 09:33:02;;;;;;;6.10;3.90;;;14.60;71.50;;;;;;4979201;28;20034;-72
2022/04/19 09:35:33;;;;;;;8.98;3.58;;;14.60;71.60;;;;;;4977548;28;20027;-72
2022/04/19 09:37:59;;;;;;;6.15;3.22;;;15.00;71.90;;;;;;4994644;28;20042;-72
2022/04/19 09:40:49;;;;;;;6.63;3.25;;;14.70;70.10;;;;;;4994995;28;20038;-73
2022/04/19 09:43:22;;;;;;;5.80;2.53;;;15.10;70.90;;;;;;5004836;28;20488;-72
2022/04/19 09:45:56;;;;;;;4.45;1.92;;;15.20;68.80;;;;;;4984143;28;20065;-72
2022/04/19 09:48:36;;;;;;;6.00;2.63;;;15.30;67.80;;;;;;4978595;28;20579;-72
2022/04/19 09:51:03;;;;;;;4.05;2.20;;;15.60;67.70;;;;;;4993892;28;20034;-72
2022/04/19 09:53:39;;;;;;;5.97;3.33;;;15.80;68.40;;;;;;5002592;28;20559;-72
2022/04/19 09:56:09;;;;;;;6.15;2.80;;;15.70;67.70;;;;;;5003594;28;20605;-72
2022/04/19 09:58:37;;;;;;;7.18;2.22;;;15.90;67.50;;;;;;4998732;28;20511;-72
2022/04/19 10:01:04;;;;;;;4.22;2.72;;;15.80;67.20;;;;;;5001816;28;20121;-72
2022/04/19 10:09:03;;;;;;;6.30;3.20;;;16.00;69.20;;;;;;5001640;28;20068;-72
2022/04/19 10:11:28;;;;;;;6.20;2.95;;;16.00;68.10;;;;;;5003856;28;20033;-72
2022/04/19 10:13:56;;;;;;;7.00;2.85;;;15.90;68.70;;;;;;4993347;28;20053;-72
2022/04/19 10:16:22;;;;;;;6.10;2.85;;;15.90;68.30;;;;;;4995821;28;20142;-72
2022/04/19 10:18:47;;;;;;;5.13;2.65;;;15.90;68.40;;;;;;4995018;28;20092;-72
2022/04/19 10:21:22;;;;;;;6.82;2.92;;;15.80;68.60;;;;;;5001923;28;20042;-72
2022/04/19 10:23:48;;;;;;;5.90;2.85;;;15.60;67.70;;;;;;4993784;28;20030;-72
2022/04/19 10:26:21;;;;;;;8.05;2.85;;;15.70;70.00;;;;;;5005149;28;20835;-72
2022/04/19 10:28:51;;;;;;;6.30;2.92;;;15.50;68.90;;;;;;4996666;28;20095;-73
2022/04/19 10:31:31;;;;;;;8.43;3.17;;;15.30;68.90;;;;;;4975300;28;20048;-72
2022/04/19 10:34:02;;;;;;;6.80;2.90;;;15.40;69.90;;;;;;4977140;28;20539;-72
2022/04/19 10:36:38;;;;;;;6.53;3.13;;;15.50;70.20;;;;;;4984167;28;20121;-73
2022/04/19 10:39:15;;;;;;;6.85;2.50;;;15.50;68.50;;;;;;4994948;28;20045;-72
2022/04/19 10:41:56;;;;;;;6.60;2.92;;;15.70;69.10;;;;;;4999609;28;20116;-72
2022/04/19 10:44:23;;;;;;;6.80;3.45;;;15.80;70.80;;;;;;5004299;28;20025;-72
2022/04/19 10:47:24;;;;;;;7.07;3.47;;;15.90;69.00;;;;;;4992305;28;20026;-72
2022/04/19 10:49:51;;;;;;;5.65;2.30;;;15.70;68.50;;;;;;4973979;28;20046;-72
2022/04/19 10:52:39;;;;;;;7.45;2.60;;;15.90;70.30;;;;;;4992675;28;20057;-72
2022/04/19 10:55:08;;;;;;;4.82;2.33;;;16.00;69.70;;;;;;4995349;28;20114;-72
2022/04/19 11:00:34;;;;;;;7.93;3.10;;;16.00;70.30;;;;;;5000529;28;20096;-72
2022/04/19 11:03:13;;;;;;;5.15;2.45;;;15.90;69.70;;;;;;4996459;28;20058;-72
2022/04/19 11:05:45;;;;;;;5.05;2.63;;;15.90;68.90;;;;;;5004354;28;20057;-72
2022/04/19 11:08:25;;;;;;;7.05;3.05;;;15.80;69.60;;;;;;4995929;28;20118;-72
2022/04/19 11:11:02;;;;;;;6.82;2.67;;;15.80;69.30;;;;;;5001761;28;20026;-73
2022/04/19 11:13:31;;;;;;;7.45;2.53;;;15.80;68.90;;;;;;4998806;28;20488;-73
2022/04/19 11:16:03;;;;;;;6.03;2.70;;;15.70;68.90;;;;;;4995452;28;20057;-72
2022/04/19 11:18:33;;;;;;;5.63;2.60;;;15.50;68.30;;;;;;4990367;28;20038;-72
2022/04/19 11:21:03;;;;;;;8.02;3.55;;;15.50;68.50;;;;;;4993246;28;20027;-73
2022/04/19 11:23:40;;;;;;;7.22;2.63;;;15.20;68.60;;;;;;4994627;28;20026;-72
2022/04/19 11:26:08;;;;;;;6.78;3.40;;;15.10;68.90;;;;;;4993068;28;20034;-71
2022/04/19 11:28:34;;;;;;;5.55;2.72;;;15.00;68.70;;;;;;5004375;28;20081;-73
2022/04/19 11:31:00;;;;;;;7.97;3.25;;;14.80;68.50;;;;;;5001050;28;20144;-73
2022/04/19 11:33:34;;;;;;;6.47;3.22;;;14.80;68.60;;;;;;4995485;28;20212;-73
2022/04/19 11:36:08;;;;;;;5.80;2.78;;;14.70;69.00;;;;;;4997715;28;20129;-73
2022/04/19 11:38:40;;;;;;;10.10;3.08;;;14.70;68.60;;;;;;5002058;28;20084;-72
2022/04/19 11:46:46;;;;;;;7.05;2.97;;;14.50;68.30;;;;;;5003624;28;20040;-73
2022/04/19 11:49:26;;;;;;;8.70;2.83;;;14.50;68.70;;;;;;4989052;28;20383;-73
2022/04/19 11:51:54;;;;;;;7.47;2.70;;;14.50;68.50;;;;;;4979745;28;20088;-73
2022/04/19 11:54:20;;;;;;;3.90;2.17;;;14.40;69.40;;;;;;4999582;28;20365;-73
2022/04/19 11:56:51;;;;;;;33.47;24.90;;;14.50;69.10;;;;;;5003142;28;20033;-72
2022/04/19 11:59:16;;;;;;;7.28;4.60;;;14.50;69.00;;;;;;5002458;28;20041;-73
2022/04/19 12:01:48;;;;;;;13.38;8.07;;;14.50;69.10;;;;;;4995208;28;20030;-73
2022/04/19 12:04:14;;;;;;;23.42;14.05;;;14.40;69.40;;;;;;5001754;28;20033;-73
2022/04/19 12:06:46;;;;;;;20.00;11.13;;;14.40;68.80;;;;;;4998500;28;20103;-72
2022/04/19 12:09:15;;;;;;;66.43;37.58;;;14.70;69.10;;;;;;5000720;28;20192;-73
2022/04/19 12:11:41;;;;;;;155.23;89.07;;;15.40;68.50;;;;;;4995705;28;20076;-72
2022/04/19 12:14:07;;;;;;;37.28;24.55;;;15.80;67.70;;;;;;4994310;28;20100;-73
2022/04/19 12:16:39;;;;;;;27.55;18.67;;;16.10;67.30;;;;;;4999336;28;20650;-73
2022/04/19 12:19:07;;;;;;;10.70;7.20;;;16.00;66.20;;;;;;4996684;28;20042;-73
2022/04/19 12:21:40;;;;;;;8.75;3.40;;;16.10;66.10;;;;;;4974961;28;20469;-73
2022/04/19 12:24:08;;;;;;;5.75;3.63;;;16.20;66.10;;;;;;4993603;28;20057;-73
2022/04/19 12:26:34;;;;;;;7.60;2.67;;;16.60;67.50;;;;;;4990253;28;20038;-73
2022/04/19 12:37:26;;;;;;;8.02;2.63;;;16.60;65.60;;;;;;5000599;28;20076;-73
2022/04/19 12:51:05;;;;;;;6.68;2.42;;;17.20;65.10;;;;;;4980244;28;20057;-73
2022/04/19 12:53:36;;;;;;;7.45;2.67;;;17.00;63.90;;;;;;4986363;28;20019;-73
2022/04/19 13:01:40;;;;;;;8.30;3.08;;;16.90;64.60;;;;;;4977658;28;20240;-73
2022/04/19 13:12:38;;;;;;;9.07;3.85;;;17.20;63.00;;;;;;4991503;28;20041;-74
2022/04/19 13:27:36;;;;;;;6.10;2.33;;;18.30;64.80;;;;;;4980837;28;20095;-74
2022/04/19 13:30:21;;;;;;;15.80;2.95;;;18.40;63.00;;;;;;4985429;28;20136;-73
2022/04/19 13:40:09;;;;;;;7.75;2.28;;;18.20;63.10;;;;;;5003314;28;20551;-73
2022/04/19 13:45:56;;;;;;;7.82;2.10;;;18.10;63.70;;;;;;4997462;28;20449;-73
2022/04/19 13:54:46;;;;;;;5.97;1.90;;;18.20;63.50;;;;;;5005163;28;20087;-73
2022/04/19 14:04:14;;;;;;;4.18;1.85;;;18.20;63.00;;;;;;4998419;28;20096;-74
2022/04/19 14:25:18;;;;;;;73.55;32.55;;;18.70;63.60;;;;;;5002910;28;20048;-73
2022/04/19 14:34:27;;;;;;;11.50;2.78;;;18.60;62.30;;;;;;4999195;28;20930;-73
2022/04/19 14:37:11;;;;;;;4.43;2.30;;;18.60;62.50;;;;;;4996855;28;20037;-73
2022/04/19 14:52:47;;;;;;;6.35;2.63;;;18.90;62.30;;;;;;4975210;28;20140;-73
2022/04/19 15:05:18;;;;;;;8.70;2.53;;;19.10;63.30;;;;;;4982867;28;20081;-72
2022/04/19 15:11:44;;;;;;;8.70;2.72;;;19.10;62.40;;;;;;4988726;28;20105;-72
2022/04/19 15:14:47;;;;;;;5.22;2.42;;;18.90;61.90;;;;;;4985430;28;20460;-72
2022/04/19 15:24:35;;;;;;;6.68;2.50;;;18.60;61.70;;;;;;5000951;28;20044;-72
2022/04/19 15:34:08;;;;;;;6.03;2.67;;;19.00;62.80;;;;;;4996606;28;20069;-72
2022/04/19 15:37:11;;;;;;;6.38;2.40;;;19.10;62.90;;;;;;4993315;28;20038;-72
2022/04/19 15:49:23;;;;;;;7.60;3.47;;;19.00;63.40;;;;;;5000512;28;20048;-72
2022/04/19 15:52:26;;;;;;;6.40;2.60;;;18.90;62.10;;;;;;5001542;28;20033;-72
2022/04/19 15:58:32;;;;;;;8.30;2.88;;;19.00;62.60;;;;;;4993948;28;20052;-72
2022/04/19 16:00:58;;;;;;;6.50;2.85;;;19.10;63.40;;;;;;5002744;28;20083;-72
2022/04/19 16:03:24;;;;;;;6.13;2.70;;;19.00;63.40;;;;;;4994847;28;20038;-72